Time;durP1;ratioP1;P1;durP2;ratioP2;P2;SDS_P1;SDS_P2;PMS_P1;PMS_P2;Temp;Humidity;BMP_temperature;BMP_pressure;BME280_temperature;BME280_humidity;BME280_pressure;Samples;Min_cycle;Max_cycle;Signal;HPM_P1;HPM_P2
2023/12/18 00:00:48;;;;;;;8.27;5.30;;;6.40;99.90;;;;;;2079667;28;20108;-72
2023/12/18 00:01:49;;;;;;;7.50;5.18;;;6.30;99.90;;;;;;2077748;28;20087;-72
2023/12/18 00:02:50;;;;;;;8.23;5.70;;;6.20;99.90;;;;;;2075299;28;20084;-72
2023/12/18 00:03:50;;;;;;;7.45;5.20;;;6.20;99.90;;;;;;2082636;28;20075;-72
2023/12/18 00:04:51;;;;;;;6.68;4.53;;;6.20;99.90;;;;;;2078258;28;20029;-72
2023/12/18 00:05:51;;;;;;;7.15;5.10;;;6.20;99.90;;;;;;2070451;28;20559;-72
2023/12/18 00:06:52;;;;;;;8.25;4.88;;;6.20;99.90;;;;;;2074914;28;20483;-73
2023/12/18 00:07:53;;;;;;;5.22;3.72;;;6.20;99.90;;;;;;2079140;28;20559;-83
2023/12/18 00:08:53;;;;;;;4.63;3.10;;;6.30;99.90;;;;;;2078702;28;20092;-70
2023/12/18 00:09:54;;;;;;;6.35;4.07;;;6.40;99.90;;;;;;2076153;28;20025;-73
2023/12/18 00:10:55;;;;;;;4.90;3.58;;;6.50;99.90;;;;;;2083691;28;20029;-84
2023/12/18 00:11:56;;;;;;;3.83;2.95;;;6.70;99.90;;;;;;2087798;28;20043;-73
2023/12/18 00:12:56;;;;;;;3.78;2.80;;;6.70;99.90;;;;;;2079356;28;20058;-74
2023/12/18 00:13:57;;;;;;;3.42;3.08;;;6.80;99.90;;;;;;2075978;28;20359;-74
2023/12/18 00:14:57;;;;;;;3.83;2.80;;;6.90;99.90;;;;;;2078918;28;20029;-74
2023/12/18 00:15:58;;;;;;;3.58;2.90;;;6.90;99.90;;;;;;2075180;28;20022;-73
2023/12/18 00:16:59;;;;;;;3.83;2.90;;;6.80;99.90;;;;;;2075976;28;20029;-72
2023/12/18 00:17:59;;;;;;;3.90;3.00;;;6.80;99.90;;;;;;2077994;28;20519;-72
2023/12/18 00:19:00;;;;;;;3.90;2.95;;;6.70;99.90;;;;;;2077180;28;20072;-73
2023/12/18 00:20:01;;;;;;;6.32;4.18;;;6.70;99.90;;;;;;2079076;28;20479;-73
2023/12/18 00:21:03;;;;;;;6.80;4.35;;;6.70;99.90;;;;;;2076123;28;20055;-73
2023/12/18 00:22:04;;;;;;;7.13;4.50;;;6.60;99.90;;;;;;2078091;28;20033;-72
2023/12/18 00:23:04;;;;;;;5.90;3.95;;;6.50;99.90;;;;;;2079143;28;20100;-73
2023/12/18 00:24:05;;;;;;;4.70;3.28;;;6.40;99.90;;;;;;2075736;28;20105;-73
2023/12/18 00:25:05;;;;;;;5.53;3.70;;;6.40;99.90;;;;;;2075474;28;20674;-73
2023/12/18 00:26:06;;;;;;;5.13;3.47;;;6.30;99.90;;;;;;2075670;28;20029;-73
2023/12/18 00:27:06;;;;;;;4.47;3.50;;;6.30;99.90;;;;;;2071837;28;20491;-73
2023/12/18 00:28:07;;;;;;;5.07;3.70;;;6.30;99.90;;;;;;2077635;28;20111;-73
2023/12/18 00:29:07;;;;;;;4.20;3.25;;;6.30;99.90;;;;;;2078678;28;20609;-73
2023/12/18 00:30:09;;;;;;;3.63;3.22;;;6.30;99.90;;;;;;2076399;28;20570;-72
2023/12/18 00:31:09;;;;;;;4.75;3.28;;;6.30;99.90;;;;;;2076042;28;20144;-72
2023/12/18 00:32:10;;;;;;;4.28;3.10;;;6.20;99.90;;;;;;2074347;28;20029;-73
2023/12/18 00:33:10;;;;;;;3.92;2.97;;;6.20;99.90;;;;;;2079201;28;20057;-73
2023/12/18 00:34:11;;;;;;;4.53;3.10;;;6.20;99.90;;;;;;2077463;28;20028;-73
2023/12/18 00:35:12;;;;;;;4.50;3.20;;;6.20;99.90;;;;;;2076449;28;20033;-73
2023/12/18 00:36:12;;;;;;;3.72;3.00;;;6.20;99.90;;;;;;2074546;28;20026;-73
2023/12/18 00:37:13;;;;;;;3.83;3.08;;;6.20;99.90;;;;;;2085068;28;20037;-72
2023/12/18 00:38:13;;;;;;;4.00;3.00;;;6.20;99.90;;;;;;2075775;28;20515;-72
2023/12/18 00:39:15;;;;;;;4.50;2.97;;;6.20;99.90;;;;;;2075330;28;20171;-72
2023/12/18 00:40:16;;;;;;;12.98;5.90;;;6.20;99.90;;;;;;2075732;28;20454;-74
2023/12/18 00:41:18;;;;;;;7.88;4.30;;;6.10;99.90;;;;;;2075387;28;20041;-74
2023/12/18 00:42:19;;;;;;;20.77;8.60;;;6.10;99.90;;;;;;2086500;28;20055;-74
2023/12/18 00:43:19;;;;;;;14.23;6.38;;;6.10;99.90;;;;;;2075449;28;20477;-74
2023/12/18 00:44:20;;;;;;;21.95;9.10;;;6.10;99.90;;;;;;2078073;28;20543;-75
2023/12/18 00:45:20;;;;;;;9.43;5.07;;;6.00;99.90;;;;;;2078163;28;20484;-74
2023/12/18 00:46:21;;;;;;;8.65;5.22;;;6.10;99.90;;;;;;2077885;28;20029;-74
2023/12/18 00:47:21;;;;;;;12.43;7.28;;;6.00;99.90;;;;;;2083057;28;20023;-75
2023/12/18 00:48:22;;;;;;;11.90;7.03;;;6.00;99.90;;;;;;2083049;28;20140;-75
2023/12/18 00:49:22;;;;;;;8.07;5.72;;;5.90;99.90;;;;;;2086143;28;20118;-76
2023/12/18 00:50:23;;;;;;;11.02;6.60;;;5.90;99.90;;;;;;2086422;28;20259;-75
2023/12/18 00:51:23;;;;;;;12.10;8.45;;;5.80;99.90;;;;;;2074985;28;20049;-76
2023/12/18 00:52:24;;;;;;;12.82;8.68;;;5.70;99.90;;;;;;2078693;28;20858;-75
2023/12/18 00:53:25;;;;;;;12.68;8.10;;;5.60;99.90;;;;;;2078958;28;20036;-75
2023/12/18 00:54:25;;;;;;;14.48;8.70;;;5.50;99.90;;;;;;2072900;28;20264;-74
2023/12/18 00:55:26;;;;;;;12.80;8.93;;;5.40;99.90;;;;;;2074587;28;20029;-75
2023/12/18 00:56:26;;;;;;;13.57;9.02;;;5.30;99.90;;;;;;2086492;28;20058;-75
2023/12/18 00:57:27;;;;;;;14.32;8.95;;;5.20;99.90;;;;;;2082589;28;20107;-74
2023/12/18 00:58:27;;;;;;;14.43;9.10;;;5.20;99.90;;;;;;2079063;28;20041;-74
2023/12/18 00:59:28;;;;;;;13.02;8.68;;;5.10;99.90;;;;;;2086593;28;20490;-72
2023/12/18 01:00:28;;;;;;;15.90;9.35;;;5.10;99.90;;;;;;2082930;28;20495;-74
2023/12/18 01:01:29;;;;;;;14.40;8.93;;;5.00;99.90;;;;;;2078738;28;20033;-75
2023/12/18 01:02:29;;;;;;;14.07;9.18;;;5.00;99.90;;;;;;2078795;28;20025;-75
2023/12/18 01:03:30;;;;;;;13.35;9.30;;;4.90;99.90;;;;;;2075454;28;20109;-74
2023/12/18 01:04:31;;;;;;;13.55;9.05;;;4.90;99.90;;;;;;2078353;28;20115;-74
2023/12/18 01:05:32;;;;;;;15.20;9.70;;;4.90;99.90;;;;;;2078961;28;20558;-74
2023/12/18 01:06:32;;;;;;;14.23;9.60;;;4.90;99.90;;;;;;2074932;28;20041;-74
2023/12/18 01:07:33;;;;;;;18.17;10.55;;;4.90;99.90;;;;;;2077408;28;20492;-75
2023/12/18 01:08:33;;;;;;;18.67;10.05;;;4.80;99.90;;;;;;2079116;28;20028;-75
2023/12/18 01:09:34;;;;;;;19.70;11.48;;;4.70;99.90;;;;;;2083158;28;20036;-76
2023/12/18 01:10:35;;;;;;;20.25;11.73;;;4.70;99.90;;;;;;2077230;28;20033;-75
2023/12/18 01:11:35;;;;;;;19.98;10.85;;;4.70;99.90;;;;;;2078255;28;20036;-75
2023/12/18 01:12:36;;;;;;;18.73;10.68;;;4.70;99.90;;;;;;2083718;28;20087;-75
2023/12/18 01:13:36;;;;;;;17.13;10.93;;;4.60;99.90;;;;;;2085126;28;20029;-75
2023/12/18 01:14:37;;;;;;;16.85;10.70;;;4.60;99.90;;;;;;2086108;28;20320;-75
2023/12/18 01:15:37;;;;;;;18.17;11.30;;;4.60;99.90;;;;;;2078516;28;20570;-75
2023/12/18 01:16:38;;;;;;;18.25;11.05;;;4.50;99.90;;;;;;2082764;28;20048;-74
2023/12/18 01:17:38;;;;;;;15.25;10.25;;;4.50;99.90;;;;;;2078841;28;20071;-75
2023/12/18 01:18:39;;;;;;;19.27;11.75;;;4.50;99.90;;;;;;2073463;28;20030;-75
2023/12/18 01:19:40;;;;;;;20.20;12.02;;;4.50;99.90;;;;;;2072775;28;20307;-75
2023/12/18 01:20:40;;;;;;;18.80;11.25;;;4.50;99.90;;;;;;2075063;28;20044;-74
2023/12/18 01:21:41;;;;;;;19.10;11.90;;;4.40;99.90;;;;;;2076889;28;20029;-75
2023/12/18 01:22:41;;;;;;;18.83;11.43;;;4.40;99.90;;;;;;2077003;28;20037;-75
2023/12/18 01:23:42;;;;;;;23.48;13.63;;;4.50;99.90;;;;;;2085975;28;20087;-75
2023/12/18 01:24:42;;;;;;;26.98;14.15;;;4.40;99.90;;;;;;2084182;28;20051;-75
2023/12/18 01:25:43;;;;;;;20.65;12.82;;;4.40;99.90;;;;;;2076880;28;20036;-75
2023/12/18 01:26:43;;;;;;;17.58;11.75;;;4.40;99.90;;;;;;2078355;28;20028;-75
2023/12/18 01:27:44;;;;;;;24.52;13.15;;;4.50;99.90;;;;;;2076557;28;20368;-75
2023/12/18 01:28:44;;;;;;;23.63;13.23;;;4.50;99.90;;;;;;2076104;28;20034;-75
2023/12/18 01:29:45;;;;;;;20.88;12.32;;;4.40;99.90;;;;;;2066774;28;20018;-76
2023/12/18 01:30:45;;;;;;;20.58;12.30;;;4.40;99.90;;;;;;2066169;28;20903;-74
2023/12/18 01:31:46;;;;;;;19.45;12.23;;;4.30;99.90;;;;;;2064169;28;20060;-74
2023/12/18 01:32:46;;;;;;;20.00;12.35;;;4.30;99.90;;;;;;2074944;28;20504;-74
2023/12/18 01:33:47;;;;;;;19.40;12.38;;;4.30;99.90;;;;;;2076010;28;20025;-74
2023/12/18 01:34:48;;;;;;;24.65;13.70;;;4.30;99.90;;;;;;2079490;28;20034;-75
2023/12/18 01:35:48;;;;;;;19.38;12.40;;;4.30;99.90;;;;;;2066729;28;20066;-74
2023/12/18 01:36:49;;;;;;;23.02;13.27;;;4.30;99.90;;;;;;2066996;28;20176;-74
2023/12/18 01:37:49;;;;;;;19.98;12.45;;;4.30;99.90;;;;;;2077964;28;20025;-75
2023/12/18 01:38:50;;;;;;;17.33;11.10;;;4.30;99.90;;;;;;2066137;28;20026;-75
2023/12/18 01:39:50;;;;;;;17.30;11.55;;;4.40;99.90;;;;;;2074129;28;20506;-75
2023/12/18 01:40:51;;;;;;;18.10;11.60;;;4.40;99.90;;;;;;2074969;28;20053;-74
2023/12/18 01:41:51;;;;;;;17.92;11.90;;;4.40;99.90;;;;;;2075134;28;20034;-74
2023/12/18 01:42:52;;;;;;;18.52;12.18;;;4.40;99.90;;;;;;2082386;28;20035;-74
2023/12/18 01:43:53;;;;;;;18.25;12.02;;;4.40;99.90;;;;;;2074079;28;20116;-75
2023/12/18 01:44:54;;;;;;;17.17;11.73;;;4.40;99.90;;;;;;2072189;28;20422;-74
2023/12/18 01:45:59;;;;;;;20.88;12.85;;;4.40;99.90;;;;;;2086461;28;20124;-74
2023/12/18 01:47:00;;;;;;;21.88;12.90;;;4.30;99.90;;;;;;2081642;28;20028;-74
2023/12/18 01:48:01;;;;;;;20.02;12.13;;;4.30;99.90;;;;;;2074829;28;20034;-74
2023/12/18 01:49:01;;;;;;;19.60;12.48;;;4.30;99.90;;;;;;2078695;28;20048;-74
2023/12/18 01:50:03;;;;;;;18.92;12.48;;;4.20;99.90;;;;;;2077543;28;20013;-76
2023/12/18 01:51:04;;;;;;;19.65;12.52;;;4.20;99.90;;;;;;2075339;28;20018;-76
2023/12/18 01:52:05;;;;;;;23.48;13.25;;;4.10;99.90;;;;;;2078784;28;20095;-76
2023/12/18 01:53:06;;;;;;;22.00;13.52;;;4.10;99.90;;;;;;2077879;28;20479;-76
2023/12/18 01:54:07;;;;;;;24.00;14.20;;;4.00;99.90;;;;;;2074831;28;20094;-75
2023/12/18 01:55:09;;;;;;;21.50;13.35;;;4.00;99.90;;;;;;2074854;28;20049;-76
2023/12/18 01:56:12;;;;;;;22.05;13.50;;;4.00;99.90;;;;;;2074851;28;20045;-75
2023/12/18 01:57:15;;;;;;;22.92;14.00;;;3.90;99.90;;;;;;2078771;28;20501;-75
2023/12/18 01:58:17;;;;;;;20.70;13.18;;;3.90;99.90;;;;;;2078294;28;20404;-76
2023/12/18 01:59:20;;;;;;;28.52;15.15;;;3.90;99.90;;;;;;2074938;28;20618;-75
2023/12/18 02:00:21;;;;;;;19.92;12.80;;;3.80;99.90;;;;;;2077078;28;20041;-75
2023/12/18 02:01:23;;;;;;;22.80;13.27;;;3.80;99.90;;;;;;2074252;28;20076;-75
2023/12/18 02:02:23;;;;;;;21.25;13.63;;;3.80;99.90;;;;;;2078249;28;20112;-75
2023/12/18 02:03:24;;;;;;;22.30;13.88;;;3.80;99.90;;;;;;2078860;28;20150;-75
2023/12/18 02:04:26;;;;;;;24.35;14.20;;;3.80;99.90;;;;;;2076900;28;20056;-75
2023/12/18 02:05:26;;;;;;;21.83;13.43;;;3.80;99.90;;;;;;2080435;28;20403;-75
2023/12/18 02:06:27;;;;;;;21.15;13.23;;;3.80;99.90;;;;;;2080264;28;20032;-75
2023/12/18 02:07:29;;;;;;;20.92;13.48;;;3.80;99.90;;;;;;2076500;28;20039;-75
2023/12/18 02:08:32;;;;;;;26.05;14.93;;;3.70;99.90;;;;;;2072460;28;20033;-75
2023/12/18 02:09:34;;;;;;;22.95;14.20;;;3.70;99.90;;;;;;2080289;28;20037;-75
2023/12/18 02:10:34;;;;;;;21.42;13.48;;;3.70;99.90;;;;;;2076284;28;20200;-75
2023/12/18 02:11:36;;;;;;;21.25;13.65;;;3.70;99.90;;;;;;2078775;28;20025;-75
2023/12/18 02:12:37;;;;;;;22.45;14.05;;;3.70;99.90;;;;;;2087302;28;20448;-75
2023/12/18 02:13:40;;;;;;;20.83;14.05;;;3.70;99.90;;;;;;2084548;28;20052;-75
2023/12/18 02:14:41;;;;;;;23.95;14.68;;;3.70;99.90;;;;;;2078635;28;20037;-75
2023/12/18 02:15:41;;;;;;;23.40;14.80;;;3.60;99.90;;;;;;2079933;28;20028;-76
2023/12/18 02:16:42;;;;;;;26.60;15.85;;;3.60;99.90;;;;;;2077047;28;20025;-75
2023/12/18 02:17:42;;;;;;;23.85;14.55;;;3.60;99.90;;;;;;2069443;28;20026;-75
2023/12/18 02:18:44;;;;;;;28.52;15.02;;;3.60;99.90;;;;;;2071278;28;20056;-75
2023/12/18 02:19:45;;;;;;;26.38;13.98;;;3.60;99.90;;;;;;2077557;28;20038;-75
2023/12/18 02:20:45;;;;;;;20.05;13.45;;;3.60;99.90;;;;;;2069306;28;20492;-75
2023/12/18 02:21:46;;;;;;;22.85;14.27;;;3.60;99.90;;;;;;2068437;28;20633;-75
2023/12/18 02:22:46;;;;;;;23.10;13.73;;;3.60;99.90;;;;;;2079684;28;20033;-75
2023/12/18 02:23:48;;;;;;;22.63;13.82;;;3.60;99.90;;;;;;2077823;28;20758;-75
2023/12/18 02:24:48;;;;;;;22.85;13.73;;;3.60;99.90;;;;;;2077080;28;20068;-74
2023/12/18 02:25:49;;;;;;;21.33;13.27;;;3.60;99.90;;;;;;2076097;28;20025;-75
2023/12/18 02:26:50;;;;;;;22.15;14.13;;;3.60;99.90;;;;;;2080113;28;20033;-75
2023/12/18 02:27:51;;;;;;;22.75;14.43;;;3.50;99.90;;;;;;2078046;28;20040;-75
2023/12/18 02:28:51;;;;;;;23.92;14.15;;;3.50;99.90;;;;;;2076665;28;20061;-75
2023/12/18 02:29:52;;;;;;;21.25;13.73;;;3.50;99.90;;;;;;2079364;28;20028;-74
2023/12/18 02:30:52;;;;;;;20.98;13.40;;;3.40;99.90;;;;;;2076214;28;20439;-75
2023/12/18 02:31:53;;;;;;;24.95;14.18;;;3.50;99.90;;;;;;2074901;28;20041;-75
2023/12/18 02:32:54;;;;;;;24.35;14.05;;;3.50;99.90;;;;;;2068086;28;20038;-75
2023/12/18 02:33:54;;;;;;;22.35;13.95;;;3.50;99.90;;;;;;2067215;28;20656;-75
2023/12/18 02:34:55;;;;;;;21.67;13.82;;;3.50;99.90;;;;;;2087044;28;20107;-75
2023/12/18 02:35:56;;;;;;;21.73;13.70;;;3.50;99.90;;;;;;2086759;28;20047;-75
2023/12/18 02:36:57;;;;;;;22.98;14.13;;;3.50;99.90;;;;;;2076627;28;20025;-74
2023/12/18 02:37:57;;;;;;;21.88;13.32;;;3.50;99.90;;;;;;2087365;28;20078;-75
2023/12/18 02:38:58;;;;;;;21.95;13.68;;;3.50;99.90;;;;;;2086965;28;20038;-75
2023/12/18 02:39:59;;;;;;;23.17;13.63;;;3.50;99.90;;;;;;2076296;28;20075;-74
2023/12/18 02:40:59;;;;;;;21.38;13.40;;;3.50;99.90;;;;;;2077641;28;20107;-75
2023/12/18 02:42:00;;;;;;;21.60;13.20;;;3.50;99.90;;;;;;2080215;28;20099;-75
2023/12/18 02:43:00;;;;;;;21.70;13.20;;;3.50;99.90;;;;;;2076023;28;20067;-75
2023/12/18 02:44:01;;;;;;;21.35;13.45;;;3.50;99.90;;;;;;2079448;28;20060;-74
2023/12/18 02:45:03;;;;;;;21.63;13.70;;;3.50;99.90;;;;;;2071055;28;20440;-74
2023/12/18 02:46:04;;;;;;;23.40;13.70;;;3.50;99.90;;;;;;2071802;28;20036;-75
2023/12/18 02:47:04;;;;;;;23.40;14.15;;;3.50;99.90;;;;;;2076222;28;20144;-75
2023/12/18 02:48:06;;;;;;;31.83;17.63;;;3.50;99.90;;;;;;2080112;28;20032;-75
2023/12/18 02:49:06;;;;;;;30.80;16.95;;;3.50;99.90;;;;;;2076030;28;20036;-75
2023/12/18 02:50:07;;;;;;;22.63;13.75;;;3.40;99.90;;;;;;2083708;28;20364;-75
2023/12/18 02:51:08;;;;;;;21.48;13.70;;;3.50;99.90;;;;;;2087337;28;20040;-75
2023/12/18 02:52:08;;;;;;;22.67;14.00;;;3.50;99.90;;;;;;2076831;28;20048;-74
2023/12/18 02:53:09;;;;;;;25.02;13.85;;;3.50;99.90;;;;;;2079155;28;20029;-75
2023/12/18 02:54:09;;;;;;;25.88;13.13;;;3.50;99.90;;;;;;2079984;28;20032;-75
2023/12/18 02:55:12;;;;;;;23.38;14.15;;;3.50;99.90;;;;;;2076233;28;20037;-74
2023/12/18 02:56:13;;;;;;;23.02;14.35;;;3.50;99.90;;;;;;2077930;28;20025;-75
2023/12/18 02:57:13;;;;;;;22.52;13.85;;;3.50;99.90;;;;;;2083975;28;20094;-74
2023/12/18 02:58:14;;;;;;;26.08;14.73;;;3.50;99.90;;;;;;2077577;28;20029;-73
2023/12/18 02:59:14;;;;;;;23.85;14.25;;;3.50;99.90;;;;;;2078023;28;20119;-74
2023/12/18 03:00:15;;;;;;;25.48;14.63;;;3.50;99.90;;;;;;2086908;28;20582;-74
2023/12/18 03:01:16;;;;;;;27.55;15.15;;;3.50;99.90;;;;;;2087412;28;20035;-74
2023/12/18 03:02:16;;;;;;;22.88;13.88;;;3.40;99.90;;;;;;2077840;28;20055;-74
2023/12/18 03:03:17;;;;;;;23.70;14.40;;;3.40;99.90;;;;;;2078008;28;20156;-75
2023/12/18 03:04:18;;;;;;;23.58;14.73;;;3.50;99.90;;;;;;2079467;28;20029;-74
2023/12/18 03:05:19;;;;;;;21.70;14.30;;;3.50;99.90;;;;;;2078147;28;20052;-74
2023/12/18 03:06:19;;;;;;;21.25;13.80;;;3.50;99.90;;;;;;2076796;28;20227;-74
2023/12/18 03:07:20;;;;;;;25.70;14.60;;;3.40;99.90;;;;;;2079136;28;20515;-75
2023/12/18 03:08:20;;;;;;;23.17;14.77;;;3.40;99.90;;;;;;2075781;28;20029;-75
2023/12/18 03:09:21;;;;;;;22.50;14.18;;;3.40;99.90;;;;;;2075897;28;20109;-75
2023/12/18 03:10:22;;;;;;;24.70;13.80;;;3.40;99.90;;;;;;2087399;28;20040;-75
2023/12/18 03:11:23;;;;;;;26.08;14.95;;;3.40;99.90;;;;;;2086348;28;20029;-75
2023/12/18 03:12:23;;;;;;;29.20;16.70;;;3.40;99.90;;;;;;2072742;28;20053;-75
2023/12/18 03:13:24;;;;;;;27.10;16.17;;;3.40;99.90;;;;;;2079083;28;20025;-75
2023/12/18 03:14:24;;;;;;;24.77;15.05;;;3.40;99.90;;;;;;2078500;28;20098;-75
2023/12/18 03:15:26;;;;;;;25.65;15.18;;;3.40;99.90;;;;;;2076187;28;20535;-75
2023/12/18 03:16:26;;;;;;;26.40;15.98;;;3.40;99.90;;;;;;2078933;28;20033;-75
2023/12/18 03:17:27;;;;;;;26.95;15.60;;;3.30;99.90;;;;;;2079032;28;20402;-75
2023/12/18 03:18:27;;;;;;;22.25;14.23;;;3.30;99.90;;;;;;2075745;28;20025;-75
2023/12/18 03:19:28;;;;;;;24.80;15.00;;;3.30;99.90;;;;;;2079216;28;20445;-75
2023/12/18 03:20:28;;;;;;;26.05;15.35;;;3.30;99.90;;;;;;2078717;28;20041;-76
2023/12/18 03:21:29;;;;;;;23.23;14.15;;;3.30;99.90;;;;;;2075094;28;20033;-75
2023/12/18 03:22:29;;;;;;;23.88;14.07;;;3.30;99.90;;;;;;2075098;28;20038;-75
2023/12/18 03:23:30;;;;;;;22.27;14.23;;;3.40;99.90;;;;;;2078149;28;20040;-76
2023/12/18 03:24:32;;;;;;;23.02;14.40;;;3.40;99.90;;;;;;2074921;28;20388;-75
2023/12/18 03:25:32;;;;;;;22.85;14.15;;;3.40;99.90;;;;;;2071057;28;20033;-75
2023/12/18 03:26:33;;;;;;;24.65;14.40;;;3.40;99.90;;;;;;2087024;28;20082;-75
2023/12/18 03:27:33;;;;;;;25.23;14.02;;;3.50;99.90;;;;;;2083581;28;20017;-75
2023/12/18 03:28:34;;;;;;;22.02;14.13;;;3.50;99.90;;;;;;2079487;28;20031;-76
2023/12/18 03:29:34;;;;;;;24.42;14.32;;;3.40;99.90;;;;;;2083243;28;20465;-74
2023/12/18 03:30:35;;;;;;;20.88;13.15;;;3.40;99.90;;;;;;2081579;28;20040;-74
2023/12/18 03:31:35;;;;;;;24.05;13.88;;;3.40;99.90;;;;;;2079199;28;20033;-74
2023/12/18 03:32:36;;;;;;;21.98;13.65;;;3.40;99.90;;;;;;2082922;28;20074;-76
2023/12/18 03:33:37;;;;;;;20.70;13.10;;;3.40;99.90;;;;;;2079305;28;20087;-73
2023/12/18 03:34:38;;;;;;;21.98;13.82;;;3.40;99.90;;;;;;2075997;28;20034;-76
2023/12/18 03:35:38;;;;;;;22.35;13.55;;;3.40;99.90;;;;;;2074499;28;20068;-74
2023/12/18 03:36:39;;;;;;;21.70;13.95;;;3.40;99.90;;;;;;2078488;28;20040;-74
2023/12/18 03:37:39;;;;;;;22.27;13.95;;;3.40;99.90;;;;;;2076355;28;20095;-74
2023/12/18 03:38:40;;;;;;;24.83;14.68;;;3.40;99.90;;;;;;2078052;28;20212;-74
2023/12/18 03:39:40;;;;;;;20.70;13.45;;;3.40;99.90;;;;;;2078599;28;20036;-74
2023/12/18 03:40:41;;;;;;;23.23;14.15;;;3.50;99.90;;;;;;2067295;28;20044;-75
2023/12/18 03:41:42;;;;;;;24.02;14.63;;;3.40;99.90;;;;;;2077610;28;20033;-74
2023/12/18 03:42:42;;;;;;;24.20;13.98;;;3.40;99.90;;;;;;2084887;28;20139;-74
2023/12/18 03:43:43;;;;;;;23.98;14.43;;;3.40;99.90;;;;;;2084225;28;20025;-74
2023/12/18 03:44:43;;;;;;;21.55;14.10;;;3.40;99.90;;;;;;2086578;28;20031;-76
2023/12/18 03:45:44;;;;;;;22.10;13.50;;;3.40;99.90;;;;;;2078197;28;20256;-76
2023/12/18 03:46:44;;;;;;;24.25;13.95;;;3.30;99.90;;;;;;2079310;28;20027;-76
2023/12/18 03:47:45;;;;;;;21.67;14.15;;;3.30;99.90;;;;;;2076872;28;20184;-75
2023/12/18 03:48:45;;;;;;;22.30;13.63;;;3.30;99.90;;;;;;2077915;28;20021;-76
2023/12/18 03:49:46;;;;;;;24.67;14.80;;;3.40;99.90;;;;;;2086869;28;20548;-76
2023/12/18 03:50:47;;;;;;;22.70;14.18;;;3.40;99.90;;;;;;2082918;28;20009;-77
2023/12/18 03:51:47;;;;;;;24.67;15.10;;;3.40;99.90;;;;;;2075428;28;20103;-74
2023/12/18 03:52:48;;;;;;;24.00;14.02;;;3.30;99.90;;;;;;2079468;28;20025;-75
2023/12/18 03:53:48;;;;;;;26.95;15.73;;;3.40;99.90;;;;;;2077319;28;20021;-75
2023/12/18 03:54:49;;;;;;;24.80;14.93;;;3.30;99.90;;;;;;2077331;28;20021;-74
2023/12/18 03:55:49;;;;;;;23.20;14.68;;;3.40;99.90;;;;;;2079348;28;20527;-75
2023/12/18 03:56:50;;;;;;;23.98;14.45;;;3.40;99.90;;;;;;2077608;28;20048;-74
2023/12/18 03:57:50;;;;;;;22.35;13.95;;;3.30;99.90;;;;;;2077227;28;20395;-75
2023/12/18 03:58:51;;;;;;;24.38;14.70;;;3.30;99.90;;;;;;2079149;28;20512;-74
2023/12/18 03:59:52;;;;;;;23.42;14.05;;;3.30;99.90;;;;;;2084936;28;20110;-75
2023/12/18 04:00:52;;;;;;;23.45;13.50;;;3.30;99.90;;;;;;2084629;28;20592;-75
2023/12/18 04:01:53;;;;;;;22.77;14.02;;;3.30;99.90;;;;;;2078505;28;20412;-75
2023/12/18 04:02:53;;;;;;;22.88;14.10;;;3.30;99.90;;;;;;2068957;28;20034;-75
2023/12/18 04:03:54;;;;;;;26.90;14.48;;;3.30;99.90;;;;;;2075970;28;20355;-75
2023/12/18 04:04:54;;;;;;;22.55;14.35;;;3.20;99.90;;;;;;2075858;28;20467;-75
2023/12/18 04:05:55;;;;;;;23.38;14.52;;;3.20;99.90;;;;;;2075769;28;20068;-75
2023/12/18 04:06:55;;;;;;;22.42;14.85;;;3.20;99.90;;;;;;2076139;28;20056;-75
2023/12/18 04:07:56;;;;;;;23.20;14.18;;;3.20;99.90;;;;;;2076876;28;20052;-75
2023/12/18 04:08:57;;;;;;;27.60;16.08;;;3.20;99.90;;;;;;2075806;28;20487;-74
2023/12/18 04:09:57;;;;;;;23.95;14.55;;;3.20;99.90;;;;;;2083037;28;20521;-74
2023/12/18 04:10:58;;;;;;;28.17;16.48;;;3.10;99.90;;;;;;2086479;28;20123;-74
2023/12/18 04:11:58;;;;;;;23.92;15.30;;;3.20;99.90;;;;;;2077621;28;20404;-74
2023/12/18 04:12:59;;;;;;;26.25;15.82;;;3.20;99.90;;;;;;2074846;28;20562;-75
2023/12/18 04:13:59;;;;;;;23.98;14.60;;;3.20;99.90;;;;;;2078538;28;20092;-74
2023/12/18 04:15:00;;;;;;;25.25;15.13;;;3.20;99.90;;;;;;2077653;28;20499;-75
2023/12/18 04:16:00;;;;;;;23.33;14.95;;;3.10;99.90;;;;;;2083302;28;20076;-75
2023/12/18 04:17:01;;;;;;;24.58;14.60;;;3.10;99.90;;;;;;2078477;28;20108;-74
2023/12/18 04:18:01;;;;;;;24.10;14.73;;;3.10;99.90;;;;;;2077658;28;20025;-74
2023/12/18 04:19:02;;;;;;;27.33;16.50;;;3.10;99.90;;;;;;2079093;28;20028;-75
2023/12/18 04:20:03;;;;;;;24.70;15.40;;;3.00;99.90;;;;;;2086400;28;20025;-76
2023/12/18 04:21:04;;;;;;;24.13;15.10;;;3.10;99.90;;;;;;2086448;28;20077;-76
2023/12/18 04:22:04;;;;;;;29.25;16.40;;;3.10;99.90;;;;;;2066338;28;20037;-73
2023/12/18 04:23:05;;;;;;;28.27;16.00;;;3.10;99.90;;;;;;2066296;28;20030;-76
2023/12/18 04:24:06;;;;;;;26.75;14.88;;;3.00;99.90;;;;;;2086690;28;20097;-75
2023/12/18 04:25:06;;;;;;;24.48;15.20;;;3.00;99.90;;;;;;2082794;28;20387;-75
2023/12/18 04:26:08;;;;;;;28.35;16.50;;;3.00;99.90;;;;;;2078826;28;20053;-75
2023/12/18 04:27:09;;;;;;;37.45;19.00;;;3.00;99.90;;;;;;2079651;28;20502;-75
2023/12/18 04:28:09;;;;;;;31.95;17.20;;;3.00;99.90;;;;;;2083194;28;20051;-75
2023/12/18 04:29:10;;;;;;;29.13;17.13;;;3.00;99.90;;;;;;2086463;28;20083;-74
2023/12/18 04:30:11;;;;;;;27.45;16.48;;;3.00;99.90;;;;;;2079223;28;20103;-73
2023/12/18 04:31:11;;;;;;;24.65;15.98;;;3.00;99.90;;;;;;2082912;28;20021;-75
2023/12/18 04:32:12;;;;;;;26.88;16.75;;;2.90;99.90;;;;;;2081836;28;20043;-76
2023/12/18 04:33:13;;;;;;;31.65;17.70;;;2.90;99.90;;;;;;2077135;28;20111;-75
2023/12/18 04:34:13;;;;;;;29.00;16.38;;;2.90;99.90;;;;;;2075275;28;20025;-76
2023/12/18 04:35:14;;;;;;;32.20;18.00;;;2.90;99.90;;;;;;2078101;28;20067;-76
2023/12/18 04:36:14;;;;;;;31.25;16.52;;;2.80;99.90;;;;;;2079412;28;20086;-76
2023/12/18 04:37:15;;;;;;;32.38;16.95;;;2.90;99.90;;;;;;2083950;28;20120;-74
2023/12/18 04:38:16;;;;;;;25.35;15.43;;;2.90;99.90;;;;;;2085488;28;20496;-76
2023/12/18 04:39:17;;;;;;;28.60;15.85;;;2.80;99.90;;;;;;2079121;28;20503;-76
2023/12/18 04:40:17;;;;;;;35.88;18.35;;;2.80;99.90;;;;;;2076279;28;20042;-76
2023/12/18 04:41:21;;;;;;;28.48;16.58;;;2.80;99.90;;;;;;2072003;28;20120;-73
2023/12/18 04:42:22;;;;;;;26.15;16.13;;;2.90;99.90;;;;;;2078837;28;20495;-74
2023/12/18 04:43:23;;;;;;;30.38;17.00;;;2.90;99.90;;;;;;2076625;28;20525;-75
2023/12/18 04:44:24;;;;;;;29.40;16.83;;;2.90;99.90;;;;;;2067600;28;20447;-75
2023/12/18 04:45:24;;;;;;;30.50;17.83;;;2.90;99.90;;;;;;2078130;28;20159;-75
2023/12/18 04:46:25;;;;;;;28.65;17.50;;;2.90;99.90;;;;;;2077817;28;20533;-74
2023/12/18 04:47:26;;;;;;;32.85;17.35;;;2.80;99.90;;;;;;2076680;28;20269;-75
2023/12/18 04:48:26;;;;;;;33.28;18.17;;;2.80;99.90;;;;;;2074856;28;20499;-76
2023/12/18 04:49:27;;;;;;;40.35;19.33;;;2.80;99.90;;;;;;2075015;28;20415;-76
2023/12/18 04:50:27;;;;;;;33.65;17.23;;;2.80;99.90;;;;;;2077854;28;20052;-76
2023/12/18 04:51:28;;;;;;;25.92;16.40;;;2.80;99.90;;;;;;2076290;28;20021;-74
2023/12/18 04:52:29;;;;;;;28.88;16.90;;;2.70;99.90;;;;;;2074461;28;20185;-76
2023/12/18 04:53:33;;;;;;;27.88;16.20;;;2.70;99.90;;;;;;2061074;28;20038;-74
2023/12/18 04:54:33;;;;;;;31.65;16.50;;;2.70;99.90;;;;;;2063462;28;20617;-75
2023/12/18 04:55:34;;;;;;;28.42;17.50;;;2.70;99.90;;;;;;2086453;28;20126;-75
2023/12/18 04:56:34;;;;;;;30.17;18.20;;;2.70;99.90;;;;;;2078759;28;20059;-75
2023/12/18 04:57:36;;;;;;;30.02;17.85;;;2.70;99.90;;;;;;2075181;28;20029;-74
2023/12/18 04:58:36;;;;;;;30.30;17.45;;;2.70;99.90;;;;;;2071231;28;20460;-75
2023/12/18 04:59:37;;;;;;;31.63;17.50;;;2.70;99.90;;;;;;2085395;28;20118;-73
2023/12/18 05:00:38;;;;;;;32.03;17.92;;;2.70;99.90;;;;;;2070058;28;20033;-75
2023/12/18 05:01:38;;;;;;;28.35;17.50;;;2.80;99.90;;;;;;2058253;28;20030;-75
2023/12/18 05:02:39;;;;;;;31.02;18.65;;;2.70;99.90;;;;;;2061837;28;20018;-75
2023/12/18 05:03:39;;;;;;;31.42;17.45;;;2.70;99.90;;;;;;2061972;28;20081;-75
2023/12/18 05:04:40;;;;;;;32.83;17.98;;;2.60;99.90;;;;;;2060150;28;20065;-76
2023/12/18 05:05:40;;;;;;;32.38;18.33;;;2.60;99.90;;;;;;2069426;28;20048;-76
2023/12/18 05:06:41;;;;;;;32.72;18.52;;;2.60;99.90;;;;;;2078078;28;20424;-74
2023/12/18 05:07:41;;;;;;;33.15;18.05;;;2.60;99.90;;;;;;2074597;28;20099;-74
2023/12/18 05:08:42;;;;;;;43.28;22.48;;;2.60;99.90;;;;;;2077745;28;20594;-75
2023/12/18 05:09:42;;;;;;;34.75;19.00;;;2.60;99.90;;;;;;2078240;28;20028;-75
2023/12/18 05:10:43;;;;;;;39.40;20.70;;;2.60;99.90;;;;;;2074929;28;20029;-74
2023/12/18 05:11:43;;;;;;;36.85;20.90;;;2.50;99.90;;;;;;2077451;28;20029;-74
2023/12/18 05:12:44;;;;;;;34.90;19.27;;;2.50;99.90;;;;;;2086512;28;20017;-75
2023/12/18 05:13:45;;;;;;;32.88;19.30;;;2.50;99.90;;;;;;2083443;28;20112;-75